createdAt,value
2022-11-23T00:01:42.318Z,17.38
2022-11-23T00:06:43.980Z,15.05
2022-11-23T00:11:46.986Z,12.57
2022-11-23T00:16:48.697Z,16.02
2022-11-23T00:21:50.506Z,15.02
2022-11-23T00:26:56.864Z,14.90
2022-11-23T00:31:58.597Z,17.75
2022-11-23T00:37:00.326Z,14.48
2022-11-23T00:42:02.037Z,12.45
2022-11-23T00:47:04.956Z,13.30
2022-11-23T00:52:09.210Z,13.30
2022-11-23T00:57:10.846Z,10.05
2022-11-23T01:02:13.534Z,11.65
2022-11-23T01:07:15.164Z,14.43
2022-11-23T01:12:16.762Z,11.52
2022-11-23T01:17:22.388Z,17.45
2022-11-23T01:22:24.074Z,17.00
2022-11-23T01:27:25.644Z,12.35
2022-11-23T01:32:28.840Z,13.38
2022-11-23T01:37:32.075Z,12.60
2022-11-23T01:42:54.806Z,12.35
2022-11-23T01:47:56.587Z,10.55
2022-11-23T01:52:58.561Z,14.52
2022-11-23T01:58:02.390Z,9.90
2022-11-23T02:03:07.365Z,11.38
2022-11-23T02:08:10.828Z,12.38
2022-11-23T02:13:14.026Z,13.88
2022-11-23T02:18:19.804Z,11.20
2022-11-23T02:23:33.064Z,12.15
2022-11-23T02:28:41.817Z,20.38
2022-11-23T02:33:43.647Z,13.85
2022-11-23T02:38:45.469Z,14.00
2022-11-23T02:43:51.758Z,12.15
2022-11-23T02:48:53.344Z,10.75
2022-11-23T02:53:54.957Z,12.15
2022-11-23T02:58:56.569Z,11.40
2022-11-23T03:03:58.154Z,14.40
2022-11-23T03:09:03.422Z,13.75
2022-11-23T03:14:05.779Z,14.02
2022-11-23T03:19:16.635Z,12.07
2022-11-23T03:24:18.750Z,13.38
2022-11-23T03:29:26.350Z,10.63
2022-11-23T03:34:29.575Z,12.77
2022-11-23T03:39:31.572Z,11.57
2022-11-23T03:44:36.404Z,11.40
2022-11-23T03:49:39.708Z,13.77
2022-11-23T03:54:43.318Z,12.52
2022-11-23T03:59:46.100Z,12.30
2022-11-23T04:04:48.812Z,10.98
2022-11-23T04:10:20.285Z,11.73
2022-11-23T04:15:48.123Z,10.30
2022-11-23T04:20:49.806Z,12.10
2022-11-23T04:25:53.430Z,16.05
2022-11-23T04:30:55.465Z,12.07
2022-11-23T04:35:58.116Z,11.35
2022-11-23T04:41:00.238Z,12.02
2022-11-23T04:46:02.666Z,9.82
2022-11-23T04:51:05.672Z,9.07
2022-11-23T04:56:11.853Z,11.95
2022-11-23T05:01:15.594Z,8.70
2022-11-23T05:11:38.718Z,9.23
2022-11-23T05:16:41.962Z,9.18
2022-11-23T05:21:44.329Z,9.85
2022-11-23T05:26:48.236Z,10.60
2022-11-23T05:31:52.675Z,7.70
2022-11-23T05:36:54.487Z,9.30
2022-11-23T05:41:58.422Z,8.55
2022-11-23T05:47:27.739Z,7.75
2022-11-23T05:52:29.613Z,7.75
2022-11-23T05:57:31.479Z,9.48
2022-11-23T06:02:38.126Z,7.50
2022-11-23T06:07:42.704Z,9.30
2022-11-23T06:12:47.697Z,9.63
2022-11-23T06:17:52.279Z,10.40
2022-11-23T06:22:56.709Z,8.25
2022-11-23T06:28:01.520Z,9.02
2022-11-23T06:33:10.950Z,12.30
2022-11-23T06:38:18.597Z,10.13
2022-11-23T06:43:20.551Z,10.50
2022-11-23T06:48:24.706Z,7.85
2022-11-23T06:53:28.432Z,8.68
2022-11-23T06:58:35.324Z,9.98
2022-11-23T07:03:39.734Z,12.02
2022-11-23T07:08:54.774Z,10.75
2022-11-23T07:14:14.237Z,15.18
2022-11-23T07:19:20.258Z,11.00
2022-11-23T07:24:24.014Z,12.45
2022-11-23T07:29:25.806Z,11.20
2022-11-23T07:34:30.473Z,13.13
2022-11-23T07:39:55.537Z,9.35
2022-11-23T07:44:55.846Z,11.10
2022-11-23T07:49:57.584Z,10.20
2022-11-23T07:55:05.914Z,13.10
2022-11-23T08:00:09.442Z,11.93
2022-11-23T08:05:14.380Z,10.15
2022-11-23T08:10:23.213Z,9.10
2022-11-23T08:15:25.602Z,9.15
2022-11-23T08:20:34.185Z,10.07
2022-11-23T08:25:35.855Z,12.65
2022-11-23T08:30:38.312Z,14.63
2022-11-23T08:35:41.603Z,12.73
2022-11-23T08:40:52.586Z,11.88
2022-11-23T08:46:06.689Z,11.35
2022-11-23T08:51:11.548Z,11.98
2022-11-23T08:56:13.210Z,10.10
2022-11-23T09:01:16.360Z,7.97
2022-11-23T09:06:18.029Z,9.73
2022-11-23T09:11:19.643Z,14.15
2022-11-23T09:16:22.413Z,9.55
2022-11-23T09:21:29.334Z,9.50
2022-11-23T09:26:37.705Z,7.60
2022-11-23T09:31:39.461Z,12.27
2022-11-23T09:36:41.057Z,10.05
2022-11-23T09:42:01.254Z,7.80
2022-11-23T09:47:15.956Z,16.17
2022-11-23T09:52:22.492Z,11.43
2022-11-23T09:57:28.418Z,13.50
2022-11-23T10:02:32.157Z,10.85
2022-11-23T10:08:02.594Z,10.55
2022-11-23T10:13:13.563Z,11.00
2022-11-23T10:18:38.861Z,13.25
2022-11-23T10:23:54.096Z,13.50
2022-11-23T10:29:07.165Z,15.05
2022-11-23T10:34:12.116Z,11.88
2022-11-23T15:12:52.922Z,5.78
2022-11-23T15:18:01.974Z,4.65
2022-11-23T15:23:05.413Z,3.30
2022-11-23T15:28:17.071Z,6.05
2022-11-23T15:33:21.299Z,5.25
2022-11-23T15:38:24.063Z,4.70
2022-11-23T15:43:25.894Z,6.95
2022-11-23T15:48:32.958Z,6.65
2022-11-23T15:53:49.106Z,9.30
2022-11-23T15:58:53.241Z,6.95
2022-11-23T16:04:04.711Z,5.88
2022-11-23T16:09:51.243Z,8.52
2022-11-23T16:14:56.237Z,6.50
2022-11-23T16:20:02.080Z,5.20
2022-11-23T16:25:08.886Z,5.15
2022-11-23T16:30:35.159Z,5.65
2022-11-23T16:35:36.833Z,6.28
2022-11-23T16:40:42.589Z,6.45
2022-11-23T16:45:46.802Z,5.00
2022-11-23T16:50:48.648Z,4.90
2022-11-23T16:55:53.226Z,5.57
2022-11-23T17:00:57.140Z,4.88
2022-11-23T17:05:58.798Z,5.28
2022-11-23T17:11:01.529Z,5.68
2022-11-23T17:16:03.480Z,9.40
2022-11-23T17:21:05.261Z,6.20
2022-11-23T17:26:18.412Z,6.78
2022-11-23T17:31:21.721Z,6.03
2022-11-23T18:52:14.017Z,9.02
2022-11-23T18:57:16.952Z,8.68
2022-11-23T19:02:19.737Z,8.57
2022-11-23T19:07:26.647Z,11.63
2022-11-23T19:12:30.933Z,9.10
2022-11-23T19:17:33.202Z,9.65
2022-11-23T19:22:36.091Z,9.07
2022-11-23T19:27:37.813Z,16.50
2022-11-23T19:32:39.409Z,11.65
2022-11-23T21:09:33.079Z,16.15
2022-11-23T21:14:35.200Z,14.00
2022-11-23T21:19:39.571Z,9.43
2022-11-23T21:24:43.229Z,13.18
2022-11-23T21:29:45.071Z,12.98
2022-11-23T21:34:47.595Z,8.40
2022-11-23T21:39:52.843Z,16.10
2022-11-23T21:44:57.652Z,15.55
2022-11-23T21:49:59.672Z,14.80
2022-11-23T21:55:04.205Z,15.48
2022-11-23T22:00:08.104Z,16.50
2022-11-23T22:05:15.829Z,15.85
2022-11-23T22:10:18.085Z,15.40
2022-11-23T22:15:20.031Z,19.35
2022-11-23T22:20:21.913Z,15.57
2022-11-23T22:25:23.839Z,17.80
2022-11-23T22:30:25.740Z,15.50
2022-11-23T22:35:27.634Z,19.30
2022-11-23T22:40:32.782Z,14.90
2022-11-23T22:45:34.753Z,14.07
2022-11-23T22:51:04.841Z,12.85
2022-11-23T22:56:11.975Z,14.57
2022-11-23T23:01:16.420Z,16.15
2022-11-23T23:06:20.251Z,22.67
2022-11-23T23:11:22.980Z,23.27
2022-11-23T23:16:25.978Z,19.27
2022-11-23T23:21:28.795Z,12.43
2022-11-23T23:26:30.567Z,16.33
2022-11-23T23:31:32.376Z,12.43
2022-11-23T23:36:35.951Z,13.02
2022-11-23T23:41:37.796Z,11.68
2022-11-23T23:46:39.688Z,13.57
2022-11-23T23:51:41.536Z,12.90
2022-11-23T23:56:43.438Z,13.05
